Time;durP1;ratioP1;P1;durP2;ratioP2;P2;SDS_P1;SDS_P2;PMS_P1;PMS_P2;Temp;Humidity;BMP_temperature;BMP_pressure;BME280_temperature;BME280_humidity;BME280_pressure;Samples;Min_cycle;Max_cycle;Signal;HPM_P1;HPM_P2
2023/08/11 00:01:05;;;;;;;6.10;5.60;;;14.50;99.90;;;;;;5090343;28;20441;-67
2023/08/11 00:03:34;;;;;;;6.97;6.17;;;14.30;99.90;;;;;;5088896;28;20435;-68
2023/08/11 00:06:03;;;;;;;6.20;5.60;;;14.30;99.90;;;;;;5090053;28;20475;-66
2023/08/11 00:08:31;;;;;;;6.10;5.50;;;14.30;99.90;;;;;;5089986;28;20591;-67
2023/08/11 00:10:59;;;;;;;6.80;5.90;;;14.20;99.90;;;;;;5089910;28;20442;-67
2023/08/11 00:13:30;;;;;;;6.20;5.70;;;14.20;99.90;;;;;;5089152;28;20473;-67
2023/08/11 00:15:58;;;;;;;6.70;5.97;;;14.30;99.90;;;;;;5090287;28;20462;-66
2023/08/11 00:18:26;;;;;;;7.10;6.17;;;14.30;99.90;;;;;;5089727;28;20450;-67
2023/08/11 00:20:54;;;;;;;6.93;6.23;;;14.20;99.90;;;;;;5089769;28;20983;-66
2023/08/11 00:23:22;;;;;;;6.47;5.87;;;14.10;99.90;;;;;;5088536;28;20439;-68
2023/08/11 00:25:50;;;;;;;7.40;5.30;;;14.10;99.90;;;;;;5089714;28;20875;-68
2023/08/11 00:28:18;;;;;;;7.07;6.33;;;14.20;99.90;;;;;;5089983;28;20450;-67
2023/08/11 00:30:48;;;;;;;7.20;5.83;;;14.20;99.90;;;;;;5089618;28;21196;-67
2023/08/11 00:33:16;;;;;;;5.70;5.20;;;14.20;99.90;;;;;;5088410;28;21009;-65
2023/08/11 00:35:44;;;;;;;7.07;6.40;;;14.20;99.90;;;;;;5089777;28;20454;-65
2023/08/11 00:38:12;;;;;;;9.60;5.60;;;14.10;99.90;;;;;;5090645;28;20449;-65
2023/08/11 00:40:40;;;;;;;6.87;5.90;;;14.00;99.90;;;;;;5090196;28;20541;-66
2023/08/11 00:43:08;;;;;;;7.00;6.10;;;13.90;99.90;;;;;;5088723;28;20494;-66
2023/08/11 00:45:36;;;;;;;8.00;6.30;;;13.80;99.90;;;;;;5089414;28;20527;-66
2023/08/11 00:48:06;;;;;;;7.50;6.80;;;13.90;99.90;;;;;;5089909;28;20468;-67
2023/08/11 00:50:34;;;;;;;8.50;6.00;;;13.90;99.90;;;;;;5090320;28;20499;-66
2023/08/11 00:53:03;;;;;;;6.27;5.30;;;13.90;99.90;;;;;;5088462;28;20456;-66
2023/08/11 00:55:32;;;;;;;6.60;6.10;;;13.80;99.90;;;;;;5089875;28;20531;-66
2023/08/11 00:58:00;;;;;;;6.70;5.93;;;13.70;99.90;;;;;;5090228;28;21047;-65
2023/08/11 01:00:28;;;;;;;7.77;5.70;;;13.70;99.90;;;;;;5090191;28;20445;-66
2023/08/11 01:02:57;;;;;;;8.73;5.67;;;13.70;99.90;;;;;;5089125;28;20492;-66
2023/08/11 01:05:30;;;;;;;6.47;5.87;;;13.70;99.90;;;;;;5089784;28;20454;-66
2023/08/11 01:08:13;;;;;;;6.87;5.87;;;13.60;99.90;;;;;;5090180;28;20442;-66
2023/08/11 01:10:48;;;;;;;5.93;5.43;;;13.60;99.90;;;;;;5088190;28;20512;-65
2023/08/11 01:13:18;;;;;;;6.13;5.53;;;13.60;99.90;;;;;;5088133;28;20484;-65
2023/08/11 01:15:52;;;;;;;6.20;5.60;;;13.60;99.90;;;;;;5089036;28;20462;-66
2023/08/11 01:18:22;;;;;;;6.50;5.90;;;13.60;99.90;;;;;;5089550;28;20434;-66
2023/08/11 01:20:54;;;;;;;6.70;6.10;;;13.60;99.90;;;;;;5089319;28;20528;-65
2023/08/11 01:23:24;;;;;;;6.27;5.77;;;13.50;99.90;;;;;;5088142;28;20429;-66
2023/08/11 01:25:53;;;;;;;6.23;5.40;;;13.60;99.90;;;;;;5089119;28;20546;-66
2023/08/11 01:28:21;;;;;;;7.10;6.50;;;13.60;99.90;;;;;;5088709;28;20459;-66
2023/08/11 01:30:49;;;;;;;8.00;5.83;;;13.80;99.90;;;;;;5091029;28;20989;-65
2023/08/11 01:33:17;;;;;;;5.80;5.20;;;13.80;99.90;;;;;;5091444;28;20438;-66
2023/08/11 01:35:45;;;;;;;6.77;6.17;;;13.90;99.90;;;;;;5092763;28;20466;-65
2023/08/11 01:38:13;;;;;;;7.40;5.77;;;13.80;99.90;;;;;;5092804;28;20446;-65
2023/08/11 01:40:44;;;;;;;6.13;5.53;;;13.80;99.90;;;;;;5092899;28;20449;-64
2023/08/11 01:43:15;;;;;;;5.20;4.77;;;13.80;99.90;;;;;;5091027;28;20461;-66
2023/08/11 01:45:44;;;;;;;7.83;5.37;;;13.80;99.90;;;;;;5092774;28;20522;-65
2023/08/11 01:48:14;;;;;;;5.53;5.03;;;13.80;99.90;;;;;;5092588;28;20452;-65
2023/08/11 01:50:42;;;;;;;5.50;5.10;;;13.70;99.90;;;;;;5092215;28;20441;-65
2023/08/11 01:53:11;;;;;;;5.70;5.10;;;13.80;99.90;;;;;;5091017;28;20443;-66
2023/08/11 01:55:39;;;;;;;5.63;5.13;;;13.70;99.90;;;;;;5091836;28;20498;-66
2023/08/11 01:58:08;;;;;;;6.00;5.40;;;13.60;99.90;;;;;;5092410;28;20525;-66
2023/08/11 02:00:36;;;;;;;6.70;5.50;;;13.50;99.90;;;;;;5092259;28;20470;-64
2023/08/11 02:03:05;;;;;;;6.30;5.70;;;13.50;99.90;;;;;;5090113;28;20521;-65
2023/08/11 02:05:33;;;;;;;6.30;5.70;;;13.50;99.90;;;;;;5091917;28;20473;-66
2023/08/11 02:08:02;;;;;;;5.97;5.47;;;13.50;99.90;;;;;;5092098;28;20442;-66
2023/08/11 02:10:30;;;;;;;6.70;6.00;;;13.40;99.90;;;;;;5092174;28;20571;-66
2023/08/11 02:12:58;;;;;;;6.23;5.70;;;13.40;99.90;;;;;;5090983;28;20498;-66
2023/08/11 02:15:27;;;;;;;8.10;5.87;;;13.40;99.90;;;;;;5091885;28;20482;-66
2023/08/11 02:17:55;;;;;;;5.83;5.33;;;13.40;99.90;;;;;;5091962;28;20442;-66
2023/08/11 02:20:23;;;;;;;6.33;5.73;;;13.30;99.90;;;;;;5091488;28;20445;-66
2023/08/11 02:22:53;;;;;;;6.63;6.10;;;13.30;99.90;;;;;;5090828;28;20502;-66
2023/08/11 02:25:24;;;;;;;6.67;5.80;;;13.20;99.90;;;;;;5091812;28;20883;-66
2023/08/11 02:27:52;;;;;;;7.37;6.67;;;13.20;99.90;;;;;;5091827;28;20474;-66
2023/08/11 02:30:22;;;;;;;7.13;6.43;;;13.10;99.90;;;;;;5091862;28;20441;-64
2023/08/11 02:32:51;;;;;;;6.10;5.60;;;13.00;99.90;;;;;;5090367;28;20450;-65
2023/08/11 02:35:19;;;;;;;7.13;5.90;;;13.00;99.90;;;;;;5091767;28;20473;-66
2023/08/11 02:37:47;;;;;;;7.50;6.80;;;13.10;99.90;;;;;;5091256;28;20447;-66
2023/08/11 02:40:19;;;;;;;8.73;7.40;;;13.20;99.90;;;;;;5091677;28;20466;-67
2023/08/11 02:42:53;;;;;;;8.87;6.40;;;13.10;99.90;;;;;;5090250;28;20450;-66
2023/08/11 02:45:21;;;;;;;9.27;8.37;;;13.00;99.90;;;;;;5091549;28;20497;-66
2023/08/11 02:47:52;;;;;;;7.90;7.20;;;13.00;99.90;;;;;;5091831;28;20438;-66
2023/08/11 02:50:20;;;;;;;8.37;7.67;;;12.90;99.90;;;;;;5091845;28;20868;-66
2023/08/11 02:52:48;;;;;;;7.83;7.13;;;12.90;99.90;;;;;;5090518;28;20446;-66
2023/08/11 02:55:16;;;;;;;10.63;7.60;;;12.90;99.90;;;;;;5091103;28;20557;-67
2023/08/11 02:57:44;;;;;;;11.00;7.70;;;12.90;99.90;;;;;;5091385;28;20442;-66
2023/08/11 03:00:13;;;;;;;8.93;6.80;;;13.00;99.90;;;;;;5091138;28;20449;-66
2023/08/11 03:02:41;;;;;;;8.37;7.10;;;12.90;99.90;;;;;;5090020;28;20454;-66
2023/08/11 03:05:11;;;;;;;8.20;7.40;;;12.90;99.90;;;;;;5091045;28;20462;-66
2023/08/11 03:07:39;;;;;;;12.00;7.73;;;12.90;99.90;;;;;;5090929;28;20442;-66
2023/08/11 03:10:09;;;;;;;7.30;6.60;;;12.80;99.90;;;;;;5090614;28;20457;-66
2023/08/11 03:12:38;;;;;;;7.90;7.10;;;12.70;99.90;;;;;;5089908;28;20442;-66
2023/08/11 03:15:07;;;;;;;7.73;7.03;;;12.80;99.90;;;;;;5090859;28;20495;-66
2023/08/11 03:17:36;;;;;;;7.80;7.00;;;12.90;99.90;;;;;;5090897;28;20461;-66
2023/08/11 03:20:09;;;;;;;7.83;7.13;;;12.90;99.90;;;;;;5090934;28;20442;-66
2023/08/11 03:22:40;;;;;;;7.67;6.97;;;12.90;99.90;;;;;;5089663;28;20814;-66
2023/08/11 03:25:10;;;;;;;6.97;6.27;;;13.00;99.90;;;;;;5090813;28;20545;-66
2023/08/11 03:27:41;;;;;;;7.50;6.80;;;13.10;99.90;;;;;;5090598;28;20450;-66
2023/08/11 03:30:11;;;;;;;7.67;7.07;;;13.00;99.90;;;;;;5090752;28;20460;-66
2023/08/11 03:32:40;;;;;;;7.13;6.53;;;13.00;99.90;;;;;;5089192;28;20438;-66
2023/08/11 03:35:08;;;;;;;7.60;6.77;;;13.10;99.90;;;;;;5090215;28;20482;-66
2023/08/11 03:37:36;;;;;;;7.80;7.00;;;12.90;99.90;;;;;;5090710;28;20442;-66
2023/08/11 03:40:09;;;;;;;7.50;6.80;;;12.80;99.90;;;;;;5090533;28;20440;-66
2023/08/11 03:42:38;;;;;;;7.63;6.60;;;12.90;99.90;;;;;;5089111;28;20441;-66
2023/08/11 03:45:06;;;;;;;7.73;6.40;;;12.90;99.90;;;;;;5090561;28;20466;-66
2023/08/11 03:47:35;;;;;;;7.07;6.40;;;12.90;99.90;;;;;;5090698;28;20442;-66
2023/08/11 03:50:03;;;;;;;6.93;6.23;;;13.00;99.90;;;;;;5090220;28;20442;-66
2023/08/11 03:52:31;;;;;;;7.53;6.83;;;12.90;99.90;;;;;;5088782;28;20511;-67
2023/08/11 03:54:59;;;;;;;7.57;6.83;;;12.80;99.90;;;;;;5090511;28;20478;-66
2023/08/11 03:57:29;;;;;;;8.00;7.17;;;12.70;99.90;;;;;;5090858;28;20490;-67
2023/08/11 03:59:57;;;;;;;7.27;6.53;;;12.70;99.90;;;;;;5090336;28;20438;-66
2023/08/11 04:02:25;;;;;;;8.97;7.27;;;12.70;99.90;;;;;;5089058;28;20989;-65
2023/08/11 04:04:53;;;;;;;8.03;7.30;;;12.60;99.90;;;;;;5090561;28;20462;-66
2023/08/11 04:07:21;;;;;;;7.10;6.50;;;12.60;99.90;;;;;;5091278;28;20577;-66
2023/08/11 04:09:50;;;;;;;8.33;7.53;;;12.70;99.90;;;;;;5090328;28;20457;-67
2023/08/11 04:12:19;;;;;;;8.23;7.30;;;12.80;99.90;;;;;;5089652;28;20472;-66
2023/08/11 04:14:48;;;;;;;6.80;6.20;;;12.70;99.90;;;;;;5089489;28;20902;-65
2023/08/11 04:17:16;;;;;;;7.00;6.40;;;12.70;99.90;;;;;;5089704;28;20444;-66
2023/08/11 04:19:45;;;;;;;9.00;6.67;;;12.60;99.90;;;;;;5089843;28;20860;-66
2023/08/11 04:22:12;;;;;;;7.67;6.27;;;12.60;99.90;;;;;;5089137;28;20484;-65
2023/08/11 04:24:45;;;;;;;7.20;6.60;;;12.70;99.90;;;;;;5089232;28;20458;-66
2023/08/11 04:27:13;;;;;;;8.03;6.53;;;12.60;99.90;;;;;;5089753;28;20438;-65
2023/08/11 04:29:41;;;;;;;8.87;7.07;;;12.60;99.90;;;;;;5089806;28;20449;-66
2023/08/11 04:32:10;;;;;;;7.70;6.90;;;12.50;99.90;;;;;;5089436;28;20478;-65
2023/08/11 04:34:38;;;;;;;7.73;6.87;;;12.50;99.90;;;;;;5088935;28;20909;-66
2023/08/11 04:37:08;;;;;;;7.97;7.27;;;12.60;99.90;;;;;;5089304;28;20609;-66
2023/08/11 04:39:36;;;;;;;6.87;6.17;;;12.60;99.90;;;;;;5089601;28;20952;-65
2023/08/11 04:42:05;;;;;;;7.80;6.90;;;12.80;99.90;;;;;;5089481;28;20449;-66
2023/08/11 04:44:33;;;;;;;8.40;7.30;;;13.00;99.90;;;;;;5088882;28;20454;-66
2023/08/11 04:47:01;;;;;;;7.93;7.20;;;13.10;99.90;;;;;;5089886;28;20902;-66
2023/08/11 04:49:32;;;;;;;6.97;6.27;;;13.10;99.90;;;;;;5089730;28;20530;-66
2023/08/11 04:52:00;;;;;;;7.30;6.60;;;13.20;99.90;;;;;;5089623;28;20473;-66
2023/08/11 04:54:28;;;;;;;7.67;6.97;;;13.30;99.90;;;;;;5088037;28;20470;-66
2023/08/11 04:56:56;;;;;;;7.27;6.53;;;13.40;99.90;;;;;;5089752;28;20484;-66
2023/08/11 04:59:25;;;;;;;8.20;7.40;;;13.40;99.90;;;;;;5089666;28;20818;-65
2023/08/11 05:01:55;;;;;;;6.73;6.13;;;13.40;99.90;;;;;;5089536;28;20473;-66
2023/08/11 05:04:23;;;;;;;7.50;6.80;;;13.40;99.90;;;;;;5089668;28;20464;-66
2023/08/11 05:06:52;;;;;;;7.43;6.73;;;13.50;99.90;;;;;;5093277;28;20847;-66
2023/08/11 05:09:20;;;;;;;7.20;6.40;;;13.40;99.90;;;;;;5093081;28;20484;-66
2023/08/11 05:11:48;;;;;;;7.37;6.20;;;13.50;99.90;;;;;;5092715;28;20532;-66
2023/08/11 05:14:17;;;;;;;7.63;6.40;;;13.60;99.90;;;;;;5092062;28;20458;-67
2023/08/11 05:16:45;;;;;;;10.13;6.77;;;13.70;99.90;;;;;;5092771;28;20924;-67
2023/08/11 05:19:13;;;;;;;10.10;6.80;;;13.70;99.90;;;;;;5092982;28;20456;-67
2023/08/11 05:21:42;;;;;;;6.00;5.43;;;13.90;99.90;;;;;;5092619;28;20447;-66
2023/08/11 05:24:11;;;;;;;7.13;6.43;;;14.00;99.90;;;;;;5091570;28;20505;-66
2023/08/11 05:26:39;;;;;;;6.63;6.00;;;13.90;99.90;;;;;;5092888;28;20442;-65
2023/08/11 05:29:07;;;;;;;7.37;6.67;;;14.00;99.90;;;;;;5092769;28;20502;-67
2023/08/11 05:31:39;;;;;;;6.90;6.27;;;14.10;99.90;;;;;;5092915;28;20902;-66
2023/08/11 05:34:09;;;;;;;7.07;6.50;;;14.20;99.90;;;;;;5091333;28;20500;-66
2023/08/11 05:36:37;;;;;;;8.10;6.47;;;14.40;99.90;;;;;;5092899;28;20504;-67
2023/08/11 05:39:08;;;;;;;7.50;5.90;;;14.30;99.90;;;;;;5092705;28;20494;-67
2023/08/11 05:41:37;;;;;;;7.03;6.43;;;14.40;99.90;;;;;;5092762;28;20443;-68
2023/08/11 05:44:06;;;;;;;7.70;7.00;;;14.50;99.90;;;;;;5091017;28;20796;-67
2023/08/11 05:46:34;;;;;;;6.20;5.70;;;14.70;99.90;;;;;;5092618;28;20526;-67
2023/08/11 05:49:02;;;;;;;7.00;6.30;;;14.70;99.90;;;;;;5092751;28;20453;-67
2023/08/11 05:51:30;;;;;;;6.00;5.30;;;14.70;99.90;;;;;;5092459;28;20472;-66
2023/08/11 05:53:58;;;;;;;6.73;6.10;;;14.90;99.90;;;;;;5091332;28;20451;-67
2023/08/11 05:56:26;;;;;;;8.47;7.63;;;14.90;99.90;;;;;;5092317;28;20471;-66
2023/08/11 05:58:56;;;;;;;7.30;6.60;;;15.00;99.90;;;;;;5091518;28;20793;-67
2023/08/11 06:01:24;;;;;;;8.37;6.17;;;15.10;99.90;;;;;;5091396;28;20457;-67
2023/08/11 06:03:52;;;;;;;7.10;6.43;;;15.20;99.90;;;;;;5091244;28;20578;-63
2023/08/11 06:06:20;;;;;;;6.33;5.73;;;15.30;99.90;;;;;;5092073;28;20440;-65
2023/08/11 06:08:48;;;;;;;6.27;5.77;;;15.40;99.90;;;;;;5092006;28;20485;-65
2023/08/11 06:11:16;;;;;;;6.80;6.20;;;15.50;99.90;;;;;;5091950;28;20940;-66
2023/08/11 06:13:44;;;;;;;7.30;6.10;;;15.70;99.90;;;;;;5090903;28;20484;-66
2023/08/11 06:16:13;;;;;;;5.73;5.23;;;15.80;99.90;;;;;;5091120;28;21040;-66
2023/08/11 06:18:41;;;;;;;6.80;6.20;;;15.80;99.90;;;;;;5091854;28;20442;-66
2023/08/11 06:21:09;;;;;;;7.53;6.73;;;15.90;99.90;;;;;;5091793;28;20443;-66
2023/08/11 06:23:37;;;;;;;7.57;5.53;;;16.00;99.90;;;;;;5090639;28;20501;-66
2023/08/11 06:26:05;;;;;;;6.40;5.77;;;16.10;99.90;;;;;;5091832;28;20458;-66
2023/08/11 06:28:33;;;;;;;7.60;5.80;;;16.20;99.90;;;;;;5091512;28;20526;-66
2023/08/11 06:31:02;;;;;;;8.80;6.23;;;16.30;99.90;;;;;;5091716;28;20944;-66
2023/08/11 06:33:32;;;;;;;7.07;6.47;;;16.50;99.90;;;;;;5090493;28;20961;-66
2023/08/11 06:36:00;;;;;;;6.57;5.97;;;16.60;99.90;;;;;;5091590;28;20461;-66
2023/08/11 06:38:29;;;;;;;6.37;5.77;;;16.70;99.90;;;;;;5091499;28;20540;-66
2023/08/11 06:40:57;;;;;;;6.97;6.37;;;16.80;99.90;;;;;;5091898;28;20503;-65
2023/08/11 06:43:25;;;;;;;9.27;6.30;;;16.90;99.90;;;;;;5090703;28;20830;-65
2023/08/11 06:45:53;;;;;;;6.60;6.00;;;17.00;99.90;;;;;;5091652;28;20462;-66
2023/08/11 06:48:21;;;;;;;7.27;6.67;;;17.10;99.90;;;;;;5091742;28;20470;-66
2023/08/11 06:50:50;;;;;;;6.83;6.13;;;17.20;99.90;;;;;;5091345;28;20500;-67
2023/08/11 06:53:18;;;;;;;6.23;5.60;;;17.30;99.90;;;;;;5090141;28;20482;-66
2023/08/11 06:55:46;;;;;;;6.80;6.20;;;17.40;99.90;;;;;;5090407;28;20515;-66
2023/08/11 06:58:14;;;;;;;7.63;6.27;;;17.60;99.90;;;;;;5091358;28;20485;-66
2023/08/11 07:00:42;;;;;;;6.17;5.57;;;17.60;99.90;;;;;;5091308;28;20442;-66
2023/08/11 07:03:10;;;;;;;6.00;5.50;;;17.90;99.90;;;;;;5089909;28;20963;-66
2023/08/11 07:05:38;;;;;;;6.70;6.13;;;17.90;99.90;;;;;;5091071;28;20472;-66
2023/08/11 07:08:08;;;;;;;5.70;5.30;;;18.00;99.90;;;;;;5091179;28;20525;-66
2023/08/11 07:10:36;;;;;;;5.60;5.10;;;18.10;99.90;;;;;;5091113;28;20529;-66
2023/08/11 07:13:04;;;;;;;7.03;6.43;;;18.20;99.90;;;;;;5090349;28;20477;-66
2023/08/11 07:15:32;;;;;;;6.00;5.50;;;18.30;99.90;;;;;;5091612;28;20486;-66
2023/08/11 07:18:03;;;;;;;6.93;4.90;;;18.60;99.90;;;;;;5091062;28;20478;-66
2023/08/11 07:20:31;;;;;;;9.90;5.87;;;18.70;99.90;;;;;;5091020;28;20454;-67
2023/08/11 07:22:59;;;;;;;5.60;5.10;;;18.90;99.90;;;;;;5089399;28;20499;-66
2023/08/11 07:25:29;;;;;;;5.37;4.40;;;19.00;99.90;;;;;;5090629;28;20454;-67
2023/08/11 07:27:57;;;;;;;6.13;5.63;;;19.10;99.90;;;;;;5089282;28;20474;-66
2023/08/11 07:30:25;;;;;;;7.27;5.60;;;19.30;99.90;;;;;;5090311;28;20457;-67
2023/08/11 07:32:53;;;;;;;5.63;5.13;;;19.30;99.90;;;;;;5089362;28;20536;-65
2023/08/11 07:35:23;;;;;;;7.33;5.43;;;19.50;99.90;;;;;;5090904;28;20531;-68
2023/08/11 07:37:51;;;;;;;5.77;5.27;;;19.70;99.90;;;;;;5090505;28;20561;-66
2023/08/11 07:40:19;;;;;;;6.20;5.20;;;19.80;99.90;;;;;;5090565;28;20438;-65
2023/08/11 07:42:48;;;;;;;6.00;5.40;;;20.00;99.90;;;;;;5089117;28;20474;-67
2023/08/11 07:45:16;;;;;;;7.20;6.40;;;20.10;99.90;;;;;;5090057;28;20481;-66
2023/08/11 07:47:44;;;;;;;5.70;5.20;;;20.20;99.90;;;;;;5090256;28;20888;-66
2023/08/11 07:50:12;;;;;;;5.73;5.23;;;20.40;99.90;;;;;;5090156;28;20814;-66
2023/08/11 07:52:40;;;;;;;7.00;6.30;;;20.60;99.90;;;;;;5088842;28;20538;-66
2023/08/11 07:55:08;;;;;;;7.03;5.87;;;20.80;99.90;;;;;;5089938;28;20461;-67
2023/08/11 07:57:37;;;;;;;6.00;5.10;;;21.10;99.90;;;;;;5090118;28;20474;-66
2023/08/11 08:00:13;;;;;;;6.07;5.47;;;21.20;99.90;;;;;;5090135;28;20932;-65
2023/08/11 08:02:42;;;;;;;5.80;5.30;;;21.30;99.90;;;;;;5088392;28;20521;-66
2023/08/11 08:05:10;;;;;;;5.50;4.93;;;21.40;99.90;;;;;;5091372;28;20493;-67
2023/08/11 08:07:40;;;;;;;6.07;5.47;;;21.60;99.90;;;;;;5090277;28;20448;-67
2023/08/11 08:10:10;;;;;;;6.03;5.37;;;21.80;99.90;;;;;;5089890;28;20515;-67
2023/08/11 08:12:38;;;;;;;5.23;4.67;;;21.90;99.90;;;;;;5088540;28;20827;-66
2023/08/11 08:15:10;;;;;;;5.37;4.97;;;22.00;99.90;;;;;;5089888;28;20474;-67
2023/08/11 08:17:39;;;;;;;6.03;5.03;;;22.10;99.90;;;;;;5089734;28;20478;-66
2023/08/11 08:20:09;;;;;;;5.50;4.97;;;22.30;99.90;;;;;;5090064;28;20451;-67
2023/08/11 08:22:37;;;;;;;5.03;4.23;;;22.30;99.90;;;;;;5068604;28;20451;-66
2023/08/11 08:25:06;;;;;;;5.53;4.70;;;22.40;99.90;;;;;;5069668;28;20467;-67
2023/08/11 08:27:35;;;;;;;3.93;3.63;;;22.50;99.90;;;;;;5069552;28;21018;-66
2023/08/11 08:30:04;;;;;;;5.30;4.57;;;22.60;99.90;;;;;;5069657;28;20447;-67
2023/08/11 08:32:34;;;;;;;4.30;4.00;;;22.80;99.90;;;;;;5068976;28;20443;-67
2023/08/11 08:35:03;;;;;;;5.53;4.90;;;23.00;99.90;;;;;;5069574;28;20501;-65
2023/08/11 08:37:31;;;;;;;5.73;4.80;;;23.20;99.90;;;;;;5079705;28;20518;-68
2023/08/11 08:40:00;;;;;;;4.37;4.00;;;23.30;99.90;;;;;;5092174;28;20831;-67
2023/08/11 08:42:30;;;;;;;5.80;4.80;;;23.40;99.90;;;;;;5093012;28;20442;-66
2023/08/11 08:44:59;;;;;;;6.07;4.27;;;23.60;99.90;;;;;;5093743;28;20571;-66
2023/08/11 08:47:27;;;;;;;4.97;4.03;;;23.60;99.90;;;;;;5093774;28;20450;-66
2023/08/11 08:49:58;;;;;;;4.03;3.73;;;23.90;99.90;;;;;;5093804;28;20442;-66
2023/08/11 08:52:26;;;;;;;4.50;4.10;;;23.90;99.90;;;;;;5092462;28;20446;-67
2023/08/11 08:54:54;;;;;;;5.17;3.87;;;24.00;99.90;;;;;;5093352;28;20470;-66
2023/08/11 08:57:26;;;;;;;4.00;3.70;;;24.10;99.90;;;;;;5093550;28;20528;-66
2023/08/11 08:59:54;;;;;;;5.67;4.13;;;24.30;99.90;;;;;;5093707;28;20996;-65
2023/08/11 09:02:27;;;;;;;5.40;4.27;;;24.40;99.90;;;;;;5092913;28;20442;-66
2023/08/11 09:04:57;;;;;;;4.20;3.90;;;24.40;99.90;;;;;;5093252;28;20454;-66
2023/08/11 09:07:25;;;;;;;3.70;3.40;;;24.60;99.90;;;;;;5093104;28;20453;-67
2023/08/11 09:09:53;;;;;;;8.33;4.57;;;24.80;99.90;;;;;;5093358;28;20553;-66
2023/08/11 09:12:24;;;;;;;5.30;4.40;;;25.00;99.90;;;;;;5092700;28;20452;-67
2023/08/11 09:14:52;;;;;;;4.80;4.40;;;25.10;99.90;;;;;;5093123;28;20454;-66
2023/08/11 09:17:20;;;;;;;6.43;5.30;;;25.20;99.90;;;;;;5093112;28;20544;-66
2023/08/11 09:19:51;;;;;;;5.50;5.00;;;25.30;99.80;;;;;;5093013;28;20438;-65
2023/08/11 09:22:26;;;;;;;6.07;5.47;;;25.30;99.90;;;;;;5092136;28;20450;-67
2023/08/11 09:24:55;;;;;;;5.50;5.07;;;25.30;97.80;;;;;;5092816;28;20496;-66
2023/08/11 09:27:23;;;;;;;5.83;4.27;;;25.30;97.00;;;;;;5093128;28;20449;-66
2023/08/11 09:29:51;;;;;;;5.60;4.67;;;25.50;97.30;;;;;;5092952;28;20502;-66
2023/08/11 09:32:22;;;;;;;6.37;4.87;;;25.60;99.80;;;;;;5092773;28;20485;-67
2023/08/11 09:34:54;;;;;;;5.67;5.23;;;25.70;95.90;;;;;;5092973;28;20473;-66
2023/08/11 09:37:23;;;;;;;6.73;5.40;;;25.80;95.10;;;;;;5092729;28;20859;-66
2023/08/11 09:39:56;;;;;;;5.47;5.07;;;25.90;94.30;;;;;;5092767;28;20513;-67
2023/08/11 09:42:27;;;;;;;4.70;4.30;;;26.10;95.60;;;;;;5091622;28;20440;-65
2023/08/11 09:44:55;;;;;;;4.67;4.27;;;26.30;93.80;;;;;;5092802;28;20541;-67
2023/08/11 09:47:23;;;;;;;5.37;4.87;;;26.50;93.60;;;;;;5092784;28;20438;-66
2023/08/11 09:49:51;;;;;;;4.13;3.30;;;27.00;91.70;;;;;;5092477;28;20435;-67
2023/08/11 09:52:20;;;;;;;3.90;3.60;;;27.60;90.20;;;;;;5090885;28;20507;-67
2023/08/11 09:54:52;;;;;;;4.00;3.60;;;28.20;90.80;;;;;;5092105;28;20538;-67
2023/08/11 09:57:22;;;;;;;4.87;4.00;;;28.90;84.60;;;;;;5092887;28;20438;-67
2023/08/11 09:59:53;;;;;;;3.67;3.37;;;29.50;79.90;;;;;;5092724;28;20500;-68
2023/08/11 10:02:25;;;;;;;5.87;4.30;;;30.00;80.00;;;;;;5092320;28;20454;-67
2023/08/11 10:04:57;;;;;;;4.03;3.73;;;30.20;77.80;;;;;;5092024;28;20473;-67
2023/08/11 10:07:33;;;;;;;3.73;3.43;;;30.50;69.30;;;;;;5092411;28;20499;-65
2023/08/11 10:10:07;;;;;;;4.50;4.10;;;30.40;72.00;;;;;;5092325;28;20446;-67
2023/08/11 10:12:40;;;;;;;3.93;3.63;;;30.50;67.20;;;;;;5091149;28;20446;-67
2023/08/11 10:15:10;;;;;;;4.93;4.53;;;30.80;63.50;;;;;;5092327;28;20458;-67
2023/08/11 10:17:39;;;;;;;4.47;4.13;;;30.70;63.50;;;;;;5092078;28;20446;-67
2023/08/11 10:20:09;;;;;;;4.70;4.30;;;30.40;64.20;;;;;;5092017;28;20853;-67
2023/08/11 10:22:37;;;;;;;4.17;3.77;;;30.20;63.10;;;;;;5090874;28;20446;-67
2023/08/11 10:25:08;;;;;;;4.90;4.50;;;30.40;64.00;;;;;;5091966;28;20462;-67
2023/08/11 10:27:38;;;;;;;5.03;4.53;;;30.40;64.40;;;;;;5092311;28;20791;-67
2023/08/11 10:30:09;;;;;;;4.77;4.37;;;30.60;64.30;;;;;;5092134;28;20899;-67
2023/08/11 10:32:39;;;;;;;4.20;3.80;;;30.80;60.10;;;;;;5091264;28;20470;-67
2023/08/11 10:35:08;;;;;;;3.93;3.63;;;31.00;62.50;;;;;;5092066;28;20545;-66
2023/08/11 10:37:36;;;;;;;5.00;4.30;;;31.20;59.00;;;;;;5091667;28;20562;-66
2023/08/11 10:40:09;;;;;;;4.53;4.13;;;31.00;58.80;;;;;;5091883;28;20486;-67
2023/08/11 10:42:37;;;;;;;4.37;4.00;;;30.90;60.70;;;;;;5090752;28;20450;-67
2023/08/11 10:45:13;;;;;;;4.40;4.10;;;30.70;58.90;;;;;;5091765;28;20971;-67
2023/08/11 10:47:51;;;;;;;5.27;4.67;;;31.00;58.60;;;;;;5091639;28;20446;-66
2023/08/11 10:50:21;;;;;;;4.63;4.23;;;31.00;58.50;;;;;;5091612;28;20521;-66
2023/08/11 10:53:05;;;;;;;5.10;4.50;;;31.30;57.70;;;;;;5090077;28;20472;-68
2023/08/11 10:55:36;;;;;;;5.03;4.50;;;31.50;57.90;;;;;;5084670;28;20470;-67
2023/08/11 10:58:11;;;;;;;4.33;4.03;;;31.80;58.40;;;;;;5091383;28;20481;-67
2023/08/11 11:00:40;;;;;;;5.90;4.00;;;31.90;57.50;;;;;;5091306;28;20469;-67
2023/08/11 11:03:08;;;;;;;4.33;4.03;;;32.00;56.00;;;;;;5089663;28;20446;-66
2023/08/11 11:05:41;;;;;;;5.10;4.70;;;31.80;56.70;;;;;;5090957;28;20466;-66
2023/08/11 11:08:10;;;;;;;3.60;3.30;;;32.00;59.00;;;;;;5091768;28;20438;-67
2023/08/11 11:10:39;;;;;;;4.53;3.93;;;32.00;56.20;;;;;;5090960;28;20442;-67
2023/08/11 11:13:17;;;;;;;4.73;4.30;;;32.30;54.40;;;;;;5089857;28;20819;-67
2023/08/11 11:15:45;;;;;;;4.47;4.07;;;32.20;54.50;;;;;;5090878;28;20507;-65
2023/08/11 11:18:14;;;;;;;4.37;3.97;;;31.80;53.80;;;;;;5090872;28;20438;-67
2023/08/11 11:20:42;;;;;;;4.50;4.10;;;31.80;53.80;;;;;;5090989;28;20581;-66
2023/08/11 11:23:10;;;;;;;5.30;4.20;;;32.00;53.90;;;;;;5089898;28;20466;-67
2023/08/11 11:25:39;;;;;;;4.50;4.20;;;32.40;55.60;;;;;;5090635;28;20508;-66
2023/08/11 11:28:08;;;;;;;4.40;4.10;;;32.80;52.20;;;;;;5070738;28;20503;-67
2023/08/11 11:30:36;;;;;;;3.97;3.67;;;33.10;51.10;;;;;;5070336;28;20431;-66
2023/08/11 11:33:04;;;;;;;4.67;4.23;;;33.10;49.90;;;;;;5069264;28;20439;-67
2023/08/11 11:35:32;;;;;;;4.00;3.70;;;33.00;50.20;;;;;;5070260;28;20463;-67
2023/08/11 11:38:00;;;;;;;4.30;3.90;;;33.00;50.00;;;;;;5070254;28;20941;-66
2023/08/11 11:40:29;;;;;;;3.67;3.37;;;32.70;51.30;;;;;;5070366;28;20510;-67
2023/08/11 11:42:59;;;;;;;4.10;3.70;;;33.10;49.60;;;;;;5079101;28;20938;-67
2023/08/11 11:45:28;;;;;;;3.90;3.70;;;33.60;49.20;;;;;;5090310;28;20988;-67
2023/08/11 11:47:56;;;;;;;4.00;3.70;;;34.10;47.60;;;;;;5090351;28;20460;-67
2023/08/11 11:50:26;;;;;;;4.20;3.90;;;34.20;47.10;;;;;;5090112;28;20937;-67
2023/08/11 11:52:54;;;;;;;4.10;3.60;;;34.10;47.40;;;;;;5089157;28;20529;-67
2023/08/11 11:55:22;;;;;;;4.23;3.83;;;34.20;48.90;;;;;;5089810;28;20501;-66
2023/08/11 11:57:51;;;;;;;3.70;3.43;;;34.10;47.40;;;;;;5090649;28;20517;-68
2023/08/11 12:00:25;;;;;;;3.80;3.43;;;33.90;49.30;;;;;;5090315;28;20473;-66
2023/08/11 12:02:54;;;;;;;4.10;3.70;;;34.30;47.90;;;;;;5088764;28;20515;-66
2023/08/11 12:05:22;;;;;;;3.47;3.17;;;34.40;45.90;;;;;;5090225;28;20523;-66
2023/08/11 12:07:50;;;;;;;3.30;3.00;;;34.50;46.70;;;;;;5090260;28;20975;-67
2023/08/11 12:10:21;;;;;;;3.83;3.43;;;34.70;45.50;;;;;;5090083;28;20449;-66
2023/08/11 12:12:59;;;;;;;3.70;3.40;;;34.50;45.20;;;;;;5088977;28;21058;-67
2023/08/11 12:15:29;;;;;;;4.90;3.93;;;34.60;45.60;;;;;;5089499;28;20469;-67
2023/08/11 12:17:59;;;;;;;4.20;3.90;;;34.60;47.10;;;;;;5090423;28;20438;-67
2023/08/11 12:20:29;;;;;;;5.57;3.73;;;34.70;45.60;;;;;;5090008;28;20477;-67
2023/08/11 12:22:58;;;;;;;4.17;3.63;;;34.50;46.00;;;;;;5088922;28;20482;-66
2023/08/11 12:25:27;;;;;;;4.13;3.73;;;34.50;46.10;;;;;;5090324;28;20557;-67
2023/08/11 12:27:56;;;;;;;4.07;3.67;;;34.60;45.00;;;;;;5090252;28;20466;-67
2023/08/11 12:30:24;;;;;;;3.70;3.40;;;35.00;45.80;;;;;;5090139;28;20442;-66
2023/08/11 12:32:53;;;;;;;4.30;4.00;;;35.30;45.70;;;;;;5088429;28;20486;-67
2023/08/11 12:35:21;;;;;;;3.40;3.10;;;35.40;46.60;;;;;;5089918;28;20988;-68
2023/08/11 12:37:49;;;;;;;4.73;4.17;;;36.20;46.90;;;;;;5090098;28;20847;-67
2023/08/11 12:40:18;;;;;;;4.03;3.63;;;36.10;42.20;;;;;;5090133;28;20504;-67
2023/08/11 12:42:46;;;;;;;5.00;3.60;;;36.60;44.90;;;;;;5088569;28;20442;-65
2023/08/11 12:45:14;;;;;;;3.87;3.57;;;37.30;45.20;;;;;;5089726;28;20972;-67
2023/08/11 12:47:42;;;;;;;4.70;4.03;;;37.40;42.20;;;;;;5089416;28;20537;-67
2023/08/11 12:50:12;;;;;;;3.87;3.50;;;37.50;41.80;;;;;;5088663;28;20530;-68
2023/08/11 12:52:40;;;;;;;4.53;3.90;;;37.50;40.90;;;;;;5088668;28;20473;-68
2023/08/11 12:55:10;;;;;;;4.33;3.93;;;37.70;41.20;;;;;;5089750;28;20462;-67